Terminal Aerodrome Forecast
Issued by NWS

Home | Current Version | Previous Version | Text Only | Print | Product List | Glossary On
Versions: 1 2 3 4 5 6 7 8 9 10 11 12 13 14
800
FTUS41 KBTV 302330
TAFRUT
TAF
KRUT 302330Z 0100/0124 VRB05KT P6SM OVC040
     FM010400 14012KT P6SM OVC040
     FM010800 14011KT P6SM OVC030
     FM011100 14007KT P6SM OVC025
     FM011500 18006KT P6SM BKN030
     FM012300 13014KT P6SM BKN035=

USA.gov is the U.S. government's official web portal to all federal, state and local government web resources and services.